Time;durP1;ratioP1;P1;durP2;ratioP2;P2;SDS_P1;SDS_P2;PMS_P1;PMS_P2;Temp;Humidity;BMP_temperature;BMP_pressure;BME280_temperature;BME280_humidity;BME280_pressure;Samples;Min_cycle;Max_cycle;Signal;HPM_P1;HPM_P2
2023/02/08 00:02:15;;;;;;;16.38;10.10;;;-0.20;99.90;;;;;;5008949;28;20269;-56
2023/02/08 00:04:40;;;;;;;16.83;10.63;;;-0.30;99.90;;;;;;4999417;28;20035;-56
2023/02/08 00:07:06;;;;;;;22.88;10.43;;;-0.30;99.90;;;;;;4990112;28;20030;-55
2023/02/08 00:09:31;;;;;;;16.67;9.50;;;-0.40;99.90;;;;;;4991947;28;20038;-53
2023/02/08 00:11:57;;;;;;;17.38;10.25;;;-0.50;99.90;;;;;;4991917;28;20073;-55
2023/02/08 00:14:22;;;;;;;15.25;9.40;;;-0.60;99.90;;;;;;4989413;28;20030;-55
2023/02/08 00:16:48;;;;;;;19.05;10.85;;;-0.70;99.90;;;;;;4991490;28;20030;-53
2023/02/08 00:19:13;;;;;;;19.88;10.30;;;-0.70;99.90;;;;;;4992230;28;20295;-52
2023/02/08 00:21:39;;;;;;;17.73;10.68;;;-0.60;99.90;;;;;;4992611;28;20493;-52
2023/02/08 00:24:05;;;;;;;18.50;9.93;;;-0.60;99.90;;;;;;4992818;28;20019;-53
2023/02/08 00:26:31;;;;;;;21.33;10.93;;;-0.60;99.90;;;;;;4991063;28;20494;-55
2023/02/08 00:29:03;;;;;;;15.80;9.35;;;-0.50;99.90;;;;;;4990103;28;20030;-53
2023/02/08 00:31:28;;;;;;;18.45;10.80;;;-0.50;99.90;;;;;;5012956;28;20060;-52
2023/02/08 00:33:54;;;;;;;22.60;11.00;;;-0.40;99.90;;;;;;5013852;28;20503;-54
2023/02/08 00:36:19;;;;;;;23.25;12.05;;;-0.40;99.90;;;;;;5012921;28;20030;-54
2023/02/08 00:38:45;;;;;;;19.98;10.43;;;-0.40;99.90;;;;;;5014142;28;20121;-55
2023/02/08 00:41:10;;;;;;;19.25;11.35;;;-0.40;99.90;;;;;;5013637;28;20034;-52
2023/02/08 00:43:36;;;;;;;20.08;10.23;;;-0.40;99.90;;;;;;5013891;28;20033;-50
2023/02/08 00:46:02;;;;;;;20.58;9.85;;;-0.40;99.90;;;;;;5014232;28;20061;-55
2023/02/08 00:48:27;;;;;;;18.20;11.32;;;-0.40;99.90;;;;;;5014205;28;20022;-57
2023/02/08 00:51:06;;;;;;;15.80;10.13;;;-0.50;99.90;;;;;;5014067;28;20485;-53
2023/02/08 00:53:37;;;;;;;17.92;10.68;;;-0.60;99.90;;;;;;5013271;28;20029;-56
2023/02/08 00:56:03;;;;;;;21.33;10.40;;;-0.70;99.90;;;;;;5014543;28;20018;-51
2023/02/08 00:58:29;;;;;;;19.75;10.50;;;-0.80;99.90;;;;;;5013359;28;20034;-53
2023/02/08 01:00:54;;;;;;;16.45;9.95;;;-0.90;99.90;;;;;;5013410;28;20041;-55
2023/02/08 01:03:21;;;;;;;21.38;10.02;;;-0.90;99.90;;;;;;5012157;28;20037;-54
2023/02/08 01:05:47;;;;;;;19.27;10.93;;;-1.00;99.90;;;;;;5013084;28;20022;-52
2023/02/08 01:08:12;;;;;;;17.73;10.07;;;-1.00;99.90;;;;;;5012845;28;20029;-55
2023/02/08 01:10:38;;;;;;;20.40;10.38;;;-1.00;99.90;;;;;;5014010;28;20030;-58
2023/02/08 01:13:04;;;;;;;15.48;9.75;;;;;;;;;;5016961;28;20030;-52
2023/02/08 01:15:29;;;;;;;18.77;11.02;;;-1.10;99.90;;;;;;5015169;28;20437;-54
2023/02/08 01:17:56;;;;;;;19.13;10.90;;;-1.10;99.90;;;;;;5016281;28;20033;-54
2023/02/08 01:20:23;;;;;;;16.33;9.55;;;-1.10;99.90;;;;;;5016521;28;20061;-52
2023/02/08 01:22:48;;;;;;;17.10;10.25;;;-1.10;99.90;;;;;;5015879;28;20014;-53
2023/02/08 01:25:14;;;;;;;17.17;10.07;;;-1.20;99.90;;;;;;5014649;28;20091;-52
2023/02/08 01:27:39;;;;;;;17.13;9.57;;;-1.20;99.90;;;;;;5015546;28;20030;-54
2023/02/08 01:30:05;;;;;;;14.82;10.02;;;-1.20;99.90;;;;;;5015851;28;20022;-56
2023/02/08 01:32:31;;;;;;;17.88;10.35;;;-1.30;99.90;;;;;;5015386;28;20018;-54
2023/02/08 01:34:56;;;;;;;20.63;9.90;;;-1.30;99.90;;;;;;5014351;28;20117;-54
2023/02/08 01:37:22;;;;;;;20.77;9.60;;;-1.30;99.90;;;;;;5015606;28;20026;-53
2023/02/08 01:39:48;;;;;;;20.05;11.45;;;-1.30;99.90;;;;;;5015778;28;20054;-55
2023/02/08 01:42:14;;;;;;;19.80;9.95;;;-1.30;99.90;;;;;;5015589;28;20033;-53
2023/02/08 01:45:10;;;;;;;14.38;8.77;;;-1.20;99.90;;;;;;5015271;28;20550;-57
2023/02/08 01:47:37;;;;;;;16.70;10.77;;;-1.20;99.90;;;;;;5015807;28;20388;-54
2023/02/08 01:50:02;;;;;;;18.48;11.20;;;-1.20;99.90;;;;;;5015877;28;20034;-52
2023/02/08 01:52:28;;;;;;;17.10;9.93;;;-1.20;99.90;;;;;;5015977;28;20034;-57
2023/02/08 01:55:15;;;;;;;16.35;9.65;;;-1.20;99.90;;;;;;5015914;28;20507;-53
2023/02/08 01:57:41;;;;;;;;;;;-1.20;99.90;;;;;;5016070;28;20042;-53
2023/02/08 02:00:08;;;;;;;;;;;-1.20;99.90;;;;;;5016101;28;20426;-56
2023/02/08 02:02:35;;;;;;;14.65;8.90;;;-1.20;99.90;;;;;;5015244;28;19981;-55
2023/02/08 02:05:01;;;;;;;16.15;9.32;;;-1.20;99.90;;;;;;5015498;28;20065;-51
2023/02/08 02:07:28;;;;;;;13.88;9.55;;;-1.20;99.90;;;;;;5015690;28;20119;-54
2023/02/08 02:10:06;;;;;;;16.20;9.20;;;-1.20;99.90;;;;;;5015474;28;20034;-54
2023/02/08 02:12:32;;;;;;;17.08;10.15;;;-1.30;99.90;;;;;;5014207;28;20026;-51
2023/02/08 02:14:59;;;;;;;16.55;9.45;;;-1.30;99.90;;;;;;5015600;28;20104;-55
2023/02/08 02:17:25;;;;;;;16.58;8.65;;;-1.40;99.90;;;;;;5015138;28;20045;-56
2023/02/08 02:20:15;;;;;;;13.43;8.23;;;-1.40;99.90;;;;;;5014991;28;20022;-52
2023/02/08 02:22:52;;;;;;;13.70;9.23;;;-1.40;99.90;;;;;;5014473;28;20551;-50
2023/02/08 02:25:40;;;;;;;16.08;10.07;;;-1.40;99.90;;;;;;5014945;28;20026;-52
2023/02/08 02:28:24;;;;;;;14.68;9.93;;;-1.50;99.90;;;;;;5013664;28;20026;-54
2023/02/08 02:31:31;;;;;;;17.05;9.60;;;-1.50;99.90;;;;;;5014942;28;20026;-52
2023/02/08 02:34:12;;;;;;;;;;;-1.50;99.90;;;;;;5016024;28;20026;-48
2023/02/08 02:36:51;;;;;;;14.07;9.05;;;-0.80;99.90;;;;;;5015397;28;19909;-54
2023/02/08 02:39:29;;;;;;;16.83;8.70;;;-1.60;99.90;;;;;;5014754;28;20022;-51
2023/02/08 02:44:50;;;;;;;13.43;8.85;;;-1.70;99.90;;;;;;5014776;28;20036;-54
2023/02/08 02:47:44;;;;;;;14.07;9.18;;;-1.60;99.90;;;;;;5014490;28;20108;-55
2023/02/08 02:50:26;;;;;;;16.38;9.20;;;-1.60;99.90;;;;;;5014404;28;20396;-53
2023/02/08 02:53:20;;;;;;;17.75;9.40;;;-1.60;99.90;;;;;;5015050;28;20034;-51
2023/02/08 02:55:52;;;;;;;13.48;8.23;;;-1.60;99.90;;;;;;5014069;28;20094;-53
2023/02/08 02:58:20;;;;;;;15.55;9.32;;;-1.60;99.90;;;;;;5012551;28;20025;-51
2023/02/08 03:00:55;;;;;;;16.65;9.85;;;-1.50;99.90;;;;;;5013963;28;20034;-51
2023/02/08 03:03:27;;;;;;;16.45;8.70;;;-1.50;99.90;;;;;;5014808;28;20042;-55
2023/02/08 03:05:58;;;;;;;12.73;7.80;;;-1.50;99.90;;;;;;5014629;28;20143;-53
2023/02/08 03:08:46;;;;;;;16.60;9.57;;;-1.50;99.90;;;;;;5013886;28;20481;-53
2023/02/08 03:11:21;;;;;;;13.80;9.07;;;-1.50;99.90;;;;;;5014672;28;20034;-54
2023/02/08 03:14:14;;;;;;;17.67;9.40;;;-1.40;99.90;;;;;;5014422;28;20021;-51
2023/02/08 03:16:59;;;;;;;13.63;9.45;;;-1.50;99.90;;;;;;5014893;28;20056;-51
2023/02/08 03:19:52;;;;;;;12.98;8.77;;;-1.40;99.90;;;;;;5014959;28;20045;-54
2023/02/08 03:22:36;;;;;;;12.90;8.75;;;-1.50;99.90;;;;;;5015291;28;20037;-55
2023/02/08 03:25:19;;;;;;;17.00;9.82;;;-1.50;99.90;;;;;;5015243;28;20045;-52
2023/02/08 03:28:20;;;;;;;16.98;10.70;;;-1.60;99.90;;;;;;5014054;28;20101;-57
2023/02/08 03:31:02;;;;;;;15.43;9.93;;;-1.60;99.90;;;;;;5012743;28;20032;-57
2023/02/08 03:33:47;;;;;;;18.52;10.32;;;-1.60;99.90;;;;;;5012916;28;20409;-52
2023/02/08 03:36:27;;;;;;;17.08;10.07;;;-1.60;99.90;;;;;;5014211;28;20034;-53
2023/02/08 03:38:54;;;;;;;14.20;9.38;;;-1.60;99.90;;;;;;5014220;28;20101;-55
2023/02/08 03:41:25;;;;;;;13.60;8.82;;;-1.70;99.90;;;;;;5014043;28;20026;-53
2023/02/08 03:44:10;;;;;;;14.93;9.27;;;-1.70;99.90;;;;;;5014819;28;20030;-53
2023/02/08 03:46:43;;;;;;;15.35;9.48;;;-1.70;99.90;;;;;;5014927;28;20025;-54
2023/02/08 03:49:16;;;;;;;14.02;10.00;;;;;;;;;;5014948;28;20341;-56
2023/02/08 03:51:43;;;;;;;16.58;9.68;;;;;;;;;;5014483;28;20038;-53
2023/02/08 03:54:15;;;;;;;13.43;8.57;;;;;;;;;;5014832;28;20021;-53
2023/02/08 03:56:45;;;;;;;14.13;9.63;;;;;;;;;;5014023;28;20146;-55
2023/02/08 03:59:13;;;;;;;15.65;9.38;;;;;;;;;;5014238;28;20034;-55
2023/02/08 04:01:48;;;;;;;15.05;9.73;;;;;;;;;;5013409;28;20130;-53
2023/02/08 04:04:15;;;;;;;13.90;9.07;;;;;;;;;;5013526;28;20029;-54
2023/02/08 04:06:41;;;;;;;17.38;10.02;;;;;;;;;;5013741;28;20065;-50
2023/02/08 04:09:07;;;;;;;13.65;8.93;;;;;;;;;;5013744;28;20018;-51
2023/02/08 04:11:33;;;;;;;14.55;8.75;;;;;;;;;;5013872;28;20036;-55
2023/02/08 04:13:59;;;;;;;15.70;9.27;;;;;;;;;;5013409;28;20076;-54
2023/02/08 04:16:27;;;;;;;13.93;9.73;;;;;;;;;;5013727;28;20029;-50
2023/02/08 04:18:53;;;;;;;16.63;9.15;;;;;;;;;;5012449;28;20026;-48
2023/02/08 04:21:19;;;;;;;18.75;11.18;;;;;;;;;;5013537;28;20030;-49
2023/02/08 04:23:45;;;;;;;18.92;9.50;;;;;;;;;;5013402;28;20532;-49
2023/02/08 04:26:11;;;;;;;16.58;8.88;;;;;;;;;;5012166;28;20026;-50
2023/02/08 04:28:37;;;;;;;18.05;10.45;;;;;;;;;;5013527;28;20029;-52
2023/02/08 04:31:03;;;;;;;16.77;8.85;;;;;;;;;;5014092;28;20100;-52
2023/02/08 04:33:29;;;;;;;13.98;9.68;;;;;;;;;;5012573;28;20030;-53
2023/02/08 04:35:55;;;;;;;15.85;9.40;;;;;;;;;;5012713;28;20025;-54
2023/02/08 04:38:21;;;;;;;14.23;9.15;;;;;;;;;;5014327;28;20022;-52
2023/02/08 04:40:47;;;;;;;15.77;9.52;;;;;;;;;;5014552;28;20026;-54
2023/02/08 04:43:12;;;;;;;16.95;9.30;;;;;;;;;;5013913;28;20026;-51
2023/02/08 04:45:38;;;;;;;15.68;9.68;;;;;;;;;;5017092;28;20068;-52
2023/02/08 04:48:06;;;;;;;11.57;8.10;;;;;;;;;;5017541;28;20030;-53
2023/02/08 04:50:32;;;;;;;15.35;8.80;;;;;;;;;;5017358;28;20057;-50
2023/02/08 04:52:58;;;;;;;15.50;9.48;;;;;;;;;;5017410;28;20034;-52
2023/02/08 04:55:24;;;;;;;16.70;9.82;;;;;;;;;;5017088;28;20157;-55
2023/02/08 04:57:49;;;;;;;15.88;10.27;;;;;;;;;;5017156;28;20037;-51
2023/02/08 05:00:16;;;;;;;15.25;9.13;;;;;;;;;;5017153;28;20030;-54
2023/02/08 05:02:41;;;;;;;21.13;11.32;;;;;;;;;;5016908;28;20080;-55
2023/02/08 05:05:08;;;;;;;13.52;8.80;;;;;;;;;;5017338;28;20033;-52
2023/02/08 05:07:34;;;;;;;19.75;10.77;;;;;;;;;;5017271;28;20032;-54
2023/02/08 05:10:00;;;;;;;17.65;9.27;;;;;;;;;;5017540;28;20030;-49
2023/02/08 05:12:26;;;;;;;15.32;10.52;;;;;;;;;;5016374;28;20036;-52
2023/02/08 05:14:52;;;;;;;17.08;10.38;;;;;;;;;;5017467;28;20061;-52
2023/02/08 05:17:17;;;;;;;19.67;11.32;;;-1.60;99.90;;;;;;5016894;28;20030;-49
2023/02/08 05:19:43;;;;;;;15.48;10.93;;;-1.70;99.90;;;;;;5017297;28;20105;-48
2023/02/08 05:22:08;;;;;;;16.48;9.45;;;-1.70;99.90;;;;;;5017386;28;20432;-51
2023/02/08 05:24:34;;;;;;;17.55;10.02;;;-1.80;99.90;;;;;;5017739;28;20030;-51
2023/02/08 05:26:59;;;;;;;15.88;9.38;;;-1.80;99.90;;;;;;5017609;28;20048;-49
2023/02/08 05:29:25;;;;;;;14.57;9.82;;;-1.90;99.90;;;;;;5016262;28;20022;-52
2023/02/08 05:31:50;;;;;;;17.17;9.88;;;-1.90;99.90;;;;;;5015864;28;20113;-54
2023/02/08 05:34:16;;;;;;;21.00;10.32;;;-2.00;99.90;;;;;;5015072;28;20465;-55
2023/02/08 05:36:41;;;;;;;17.30;10.20;;;-2.00;99.90;;;;;;5014865;28;20121;-50
2023/02/08 05:39:07;;;;;;;15.95;9.95;;;-2.00;99.90;;;;;;5016597;28;20061;-52
2023/02/08 05:41:33;;;;;;;24.98;10.27;;;-2.00;99.90;;;;;;5015251;28;20493;-53
2023/02/08 05:43:58;;;;;;;17.23;10.43;;;-2.00;99.90;;;;;;5014472;28;20037;-50
2023/02/08 05:46:24;;;;;;;17.05;10.32;;;-2.00;99.90;;;;;;5016380;28;20026;-51
2023/02/08 05:48:49;;;;;;;18.35;10.85;;;-2.00;99.90;;;;;;5015932;28;20022;-54
2023/02/08 05:51:15;;;;;;;18.27;11.10;;;-2.00;99.90;;;;;;5017557;28;20497;-55
2023/02/08 05:53:42;;;;;;;21.13;11.35;;;-2.00;99.90;;;;;;5015854;28;20021;-55
2023/02/08 05:56:07;;;;;;;19.80;11.07;;;-2.00;99.90;;;;;;5013936;28;20029;-52
2023/02/08 05:58:33;;;;;;;18.60;11.55;;;-2.00;99.90;;;;;;5016963;28;20029;-55
2023/02/08 06:00:59;;;;;;;13.07;8.70;;;-2.00;99.90;;;;;;5015771;28;20058;-50
2023/02/08 06:03:24;;;;;;;13.93;9.93;;;-2.00;99.90;;;;;;5013857;28;20463;-54
2023/02/08 06:05:50;;;;;;;15.32;9.52;;;-2.00;99.90;;;;;;5015520;28;20018;-51
2023/02/08 06:08:15;;;;;;;16.52;9.90;;;-2.00;99.90;;;;;;5014370;28;20026;-51
2023/02/08 06:10:41;;;;;;;15.75;9.63;;;-2.00;99.90;;;;;;5015746;28;20125;-54
2023/02/08 06:13:06;;;;;;;16.95;9.25;;;-1.90;99.90;;;;;;5014196;28;20036;-50
2023/02/08 06:15:32;;;;;;;16.83;9.82;;;-2.00;99.90;;;;;;5014325;28;20032;-52
2023/02/08 06:17:57;;;;;;;16.98;9.30;;;-2.00;99.90;;;;;;5015929;28;20481;-53
2023/02/08 06:20:23;;;;;;;17.17;10.43;;;-2.10;99.90;;;;;;5015705;28;20033;-53
2023/02/08 06:22:49;;;;;;;16.77;9.20;;;-2.20;99.90;;;;;;5015076;28;20057;-55
2023/02/08 06:25:14;;;;;;;22.70;10.85;;;-2.20;99.90;;;;;;5014000;28;20018;-55
2023/02/08 06:27:40;;;;;;;26.65;9.23;;;-2.10;99.90;;;;;;5013802;28;20160;-53
2023/02/08 06:30:05;;;;;;;19.05;9.77;;;-2.20;99.90;;;;;;5044233;23;20064;-56
2023/02/08 06:32:31;;;;;;;20.38;10.85;;;-2.10;99.90;;;;;;5033422;28;20032;-58
2023/02/08 06:34:57;;;;;;;18.92;9.05;;;-2.20;99.90;;;;;;5034470;28;20029;-57
2023/02/08 06:37:22;;;;;;;15.98;9.60;;;-2.20;99.90;;;;;;5052489;28;20106;-57
2023/02/08 06:39:48;;;;;;;16.63;9.80;;;-2.20;99.90;;;;;;5052636;28;20047;-56
2023/02/08 06:42:13;;;;;;;15.75;9.75;;;-2.20;99.90;;;;;;5052435;28;20396;-59
2023/02/08 06:44:39;;;;;;;16.15;10.02;;;-2.20;99.90;;;;;;5051432;28;20550;-57
2023/02/08 06:47:04;;;;;;;19.73;10.18;;;-2.20;99.90;;;;;;5052220;28;20032;-56
2023/02/08 06:49:30;;;;;;;16.33;9.60;;;-2.20;99.90;;;;;;5052068;28;20029;-57
2023/02/08 06:51:56;;;;;;;17.00;10.05;;;-2.30;99.90;;;;;;5052249;28;20032;-57
2023/02/08 06:54:21;;;;;;;16.60;10.70;;;-2.30;99.90;;;;;;5033896;28;20016;-58
2023/02/08 06:56:47;;;;;;;19.70;10.32;;;-2.20;99.90;;;;;;5052977;28;20025;-58
2023/02/08 06:59:12;;;;;;;18.77;10.25;;;-2.20;99.90;;;;;;5052017;28;20109;-59
2023/02/08 07:01:38;;;;;;;18.60;11.65;;;-2.20;99.90;;;;;;5051914;28;20031;-61
2023/02/08 07:04:04;;;;;;;31.92;10.60;;;-2.00;99.90;;;;;;5051401;28;20392;-59
2023/02/08 07:06:30;;;;;;;17.98;11.68;;;-1.90;99.90;;;;;;5051821;28;20028;-57
2023/02/08 07:08:55;;;;;;;23.00;10.32;;;-1.80;99.90;;;;;;5051947;28;20021;-58
2023/02/08 07:11:21;;;;;;;20.17;10.32;;;-1.70;99.90;;;;;;5034005;28;20036;-58
2023/02/08 07:13:48;;;;;;;22.60;9.48;;;-1.70;99.90;;;;;;5051612;28;20064;-59
2023/02/08 07:16:14;;;;;;;18.23;10.68;;;-1.60;99.90;;;;;;5051941;28;20028;-59
2023/02/08 07:18:40;;;;;;;17.73;9.98;;;-1.50;99.90;;;;;;5033815;28;20025;-59
2023/02/08 07:21:05;;;;;;;20.50;9.73;;;-1.50;99.90;;;;;;5052040;28;20035;-60
2023/02/08 07:23:31;;;;;;;17.38;10.35;;;-1.40;99.90;;;;;;5033744;28;20391;-58
2023/02/08 07:26:01;;;;;;;19.70;10.85;;;-1.50;99.90;;;;;;5051651;28;20095;-62
2023/02/08 07:28:26;;;;;;;22.13;11.50;;;-1.50;99.90;;;;;;5051787;28;20021;-58
2023/02/08 07:30:52;;;;;;;16.45;10.98;;;-1.60;99.90;;;;;;5051554;28;20349;-57
2023/02/08 07:33:18;;;;;;;17.50;10.40;;;-1.60;99.90;;;;;;5051534;28;20045;-58
2023/02/08 07:35:44;;;;;;;20.92;11.27;;;-1.60;99.90;;;;;;5051437;28;20510;-60
2023/02/08 07:38:09;;;;;;;21.40;11.30;;;-1.50;99.90;;;;;;5051201;28;20443;-60
2023/02/08 07:40:35;;;;;;;20.17;10.18;;;-1.60;99.90;;;;;;5051346;28;20036;-59
2023/02/08 07:43:01;;;;;;;15.30;9.73;;;-1.60;99.90;;;;;;5051182;28;20032;-58
2023/02/08 07:45:26;;;;;;;17.20;10.10;;;-1.60;99.90;;;;;;5051184;28;20021;-58
2023/02/08 07:47:52;;;;;;;17.75;11.45;;;-1.60;99.90;;;;;;5051482;28;20047;-61
2023/02/08 07:50:17;;;;;;;18.70;10.15;;;-1.60;99.90;;;;;;5051234;28;20096;-58
2023/02/08 07:52:45;;;;;;;14.57;10.40;;;-1.60;99.90;;;;;;5051131;28;20063;-60
2023/02/08 07:55:15;;;;;;;18.35;10.05;;;-1.60;99.90;;;;;;5051618;28;20032;-61
2023/02/08 07:57:45;;;;;;;19.75;11.10;;;-1.50;99.90;;;;;;5051437;28;20021;-61
2023/02/08 08:00:11;;;;;;;16.52;9.77;;;-1.50;99.90;;;;;;5033414;28;20167;-59
2023/02/08 08:02:36;;;;;;;14.05;8.60;;;-1.50;99.90;;;;;;5051420;28;20068;-61
2023/02/08 08:05:02;;;;;;;15.48;9.10;;;-1.50;99.90;;;;;;5051073;28;20110;-62
2023/02/08 08:07:28;;;;;;;16.90;9.15;;;-1.40;99.90;;;;;;5050888;28;20021;-64
2023/02/08 08:09:54;;;;;;;14.38;9.00;;;-1.30;99.90;;;;;;5033381;28;20021;-55
2023/02/08 08:12:20;;;;;;;16.77;9.95;;;-1.20;99.90;;;;;;5051277;28;20391;-57
2023/02/08 08:14:45;;;;;;;16.08;10.07;;;-1.30;99.90;;;;;;5033187;28;20035;-57
2023/02/08 08:17:11;;;;;;;19.95;11.82;;;-1.20;99.90;;;;;;5051468;28;20099;-59
2023/02/08 08:19:37;;;;;;;18.17;9.90;;;-1.20;99.90;;;;;;5034656;28;20082;-62
2023/02/08 08:22:05;;;;;;;17.98;10.02;;;-1.10;99.90;;;;;;5055248;28;20024;-59
2023/02/08 08:24:34;;;;;;;18.45;10.43;;;-1.00;99.90;;;;;;5036952;28;20025;-59
2023/02/08 08:27:00;;;;;;;15.15;9.38;;;-1.00;99.90;;;;;;5037310;28;20013;-59
2023/02/08 08:29:26;;;;;;;18.33;10.52;;;-1.00;99.90;;;;;;5037480;28;20032;-57
2023/02/08 08:31:51;;;;;;;19.15;9.98;;;-0.90;99.90;;;;;;5055313;28;20040;-61
2023/02/08 08:34:17;;;;;;;15.88;10.27;;;-0.80;99.90;;;;;;5056583;28;20514;-59
2023/02/08 08:36:42;;;;;;;20.17;9.85;;;-0.80;99.90;;;;;;5056001;28;20028;-61
2023/02/08 08:39:08;;;;;;;19.02;10.40;;;-0.70;99.90;;;;;;5061194;28;20057;-64
2023/02/08 08:41:35;;;;;;;15.57;9.98;;;-0.70;99.90;;;;;;5065530;28;20369;-62
2023/02/08 08:44:01;;;;;;;18.00;10.48;;;-0.70;99.90;;;;;;5054891;28;20017;-61
2023/02/08 08:46:27;;;;;;;18.50;10.38;;;-0.60;99.90;;;;;;5054807;28;20032;-59
2023/02/08 08:48:52;;;;;;;20.40;10.50;;;-0.50;99.90;;;;;;5037279;28;20021;-57
2023/02/08 08:51:18;;;;;;;18.20;10.55;;;-0.50;99.90;;;;;;5054788;28;20061;-62
2023/02/08 08:53:43;;;;;;;23.40;10.55;;;-0.50;99.90;;;;;;5036260;28;20029;-59
2023/02/08 08:56:09;;;;;;;20.00;10.35;;;-0.40;99.90;;;;;;5054443;28;20028;-61
2023/02/08 08:58:34;;;;;;;17.17;10.40;;;-0.30;99.90;;;;;;5054426;28;20029;-60
2023/02/08 09:01:00;;;;;;;20.13;11.00;;;-0.30;99.90;;;;;;5054639;28;20044;-57
2023/02/08 09:03:27;;;;;;;15.20;9.98;;;-0.30;99.90;;;;;;5054213;28;20105;-56
2023/02/08 09:05:53;;;;;;;18.38;10.38;;;-0.20;99.90;;;;;;5054139;28;20025;-58
2023/02/08 09:08:18;;;;;;;20.63;11.07;;;-0.20;99.90;;;;;;5054277;28;20515;-59
2023/02/08 09:10:44;;;;;;;18.75;10.60;;;-0.10;99.90;;;;;;5054225;28;20043;-59
2023/02/08 09:13:09;;;;;;;19.50;9.77;;;-0.10;99.90;;;;;;5053756;28;20116;-58
2023/02/08 09:15:39;;;;;;;25.30;10.70;;;-0.10;99.90;;;;;;5054165;28;20063;-60
2023/02/08 09:18:05;;;;;;;17.45;11.40;;;0.00;99.90;;;;;;5054069;28;20074;-62
2023/02/08 09:20:31;;;;;;;19.10;11.52;;;0.20;99.90;;;;;;5036131;28;20108;-59
2023/02/08 09:22:56;;;;;;;16.63;10.52;;;1.50;99.90;;;;;;5035919;28;20021;-59
2023/02/08 09:25:22;;;;;;;18.85;10.65;;;1.70;99.90;;;;;;5053726;28;20021;-60
2023/02/08 09:27:47;;;;;;;18.88;11.00;;;3.60;99.90;;;;;;5053833;28;20027;-61
2023/02/08 09:30:13;;;;;;;20.60;11.38;;;3.60;98.00;;;;;;5035680;28;20040;-57
2023/02/08 09:32:39;;;;;;;16.95;10.23;;;4.40;96.60;;;;;;5051079;28;20029;-55
2023/02/08 09:35:06;;;;;;;19.27;10.90;;;4.50;96.60;;;;;;5049839;28;20027;-57
2023/02/08 09:37:31;;;;;;;17.63;10.40;;;5.40;95.40;;;;;;5053754;28;20013;-54
2023/02/08 09:39:58;;;;;;;29.20;11.30;;;5.80;94.40;;;;;;5053407;28;20102;-58
2023/02/08 09:42:42;;;;;;;18.48;12.40;;;5.80;93.60;;;;;;5053265;28;20025;-53
2023/02/08 09:45:29;;;;;;;18.45;11.52;;;5.70;93.60;;;;;;5037415;28;20112;-58
2023/02/08 09:48:18;;;;;;;19.65;10.90;;;5.60;93.30;;;;;;5038785;28;20025;-59
2023/02/08 09:51:14;;;;;;;22.02;13.43;;;5.40;93.40;;;;;;5034216;28;20031;-57
2023/02/08 09:53:46;;;;;;;20.20;12.05;;;5.50;93.50;;;;;;5049034;28;20531;-55
2023/02/08 09:56:15;;;;;;;19.02;12.38;;;6.10;92.60;;;;;;5051468;28;20033;-59
2023/02/08 09:58:44;;;;;;;19.83;12.40;;;6.10;92.20;;;;;;5050131;28;20511;-57
2023/02/08 10:01:32;;;;;;;17.45;12.48;;;6.30;92.50;;;;;;5046455;28;20034;-58
2023/02/08 10:04:09;;;;;;;19.58;11.77;;;6.20;91.70;;;;;;5032766;28;20033;-58
2023/02/08 10:06:34;;;;;;;21.02;12.65;;;6.70;91.40;;;;;;5015505;28;20021;-52
2023/02/08 10:09:04;;;;;;;22.38;12.68;;;6.80;91.10;;;;;;5033157;28;20041;-56
2023/02/08 10:11:36;;;;;;;17.92;11.63;;;;;;;;;;5033392;28;20030;-57
2023/02/08 10:14:10;;;;;;;20.90;13.00;;;;;;;;;;5032901;28;20033;-56
2023/02/08 10:16:57;;;;;;;24.15;12.50;;;;;;;;;;5033099;28;20028;-58
2023/02/08 10:19:52;;;;;;;17.58;11.55;;;7.20;90.30;;;;;;5014885;28;20049;-53
2023/02/08 10:22:20;;;;;;;18.80;11.52;;;7.40;90.50;;;;;;5032879;28;20026;-55
2023/02/08 10:25:11;;;;;;;20.08;11.93;;;8.00;87.60;;;;;;5032436;28;20025;-57
2023/02/08 10:27:53;;;;;;;18.13;11.95;;;8.00;85.80;;;;;;5032891;28;20038;-51
2023/02/08 10:30:30;;;;;;;22.40;13.52;;;7.50;85.80;;;;;;5032641;28;20044;-55
2023/02/08 10:33:10;;;;;;;16.75;11.90;;;7.30;85.80;;;;;;5032704;28;20524;-51
2023/02/08 10:35:40;;;;;;;24.67;13.05;;;7.00;87.10;;;;;;5032529;28;20029;-53
2023/02/08 10:38:22;;;;;;;21.70;12.90;;;6.70;87.10;;;;;;5032720;28;20021;-56
2023/02/08 10:40:52;;;;;;;17.92;12.15;;;6.30;88.70;;;;;;5037185;28;20036;-53
2023/02/08 10:43:25;;;;;;;20.48;12.13;;;6.20;90.10;;;;;;5051824;28;20032;-56
2023/02/08 10:46:19;;;;;;;22.30;12.60;;;5.90;90.00;;;;;;5034639;28;20480;-55
2023/02/08 10:48:57;;;;;;;22.95;12.55;;;5.60;90.80;;;;;;5052408;28;20141;-59
2023/02/08 10:51:23;;;;;;;25.40;12.60;;;5.20;90.90;;;;;;5052119;28;20017;-56
2023/02/08 10:53:49;;;;;;;18.45;12.23;;;5.00;91.50;;;;;;5051897;28;20120;-57
2023/02/08 10:56:33;;;;;;;18.58;10.32;;;4.90;92.60;;;;;;5051959;28;20025;-54
2023/02/08 10:59:03;;;;;;;18.95;12.05;;;4.90;91.30;;;;;;5052014;28;20060;-56
2023/02/08 11:01:29;;;;;;;21.10;12.35;;;4.80;92.20;;;;;;5051832;28;20025;-59
2023/02/08 11:04:13;;;;;;;20.92;11.63;;;4.90;92.30;;;;;;5033748;28;20021;-55
2023/02/08 11:06:41;;;;;;;27.30;12.63;;;4.80;92.40;;;;;;5052146;28;20499;-58
2023/02/08 11:09:23;;;;;;;18.95;11.35;;;4.90;91.40;;;;;;5051996;28;20033;-56
2023/02/08 11:11:52;;;;;;;21.02;11.65;;;4.70;91.90;;;;;;5052123;28;20024;-55
2023/02/08 11:14:51;;;;;;;23.95;12.50;;;4.60;92.50;;;;;;5047341;28;20500;-53
2023/02/08 11:17:30;;;;;;;17.52;11.70;;;4.60;93.10;;;;;;5001642;28;20132;-56
2023/02/08 11:19:57;;;;;;;20.92;12.75;;;4.40;92.60;;;;;;5014468;28;20064;-55
2023/02/08 11:22:25;;;;;;;19.00;12.02;;;4.20;93.30;;;;;;5051976;28;20020;-56
2023/02/08 11:24:57;;;;;;;20.58;12.73;;;4.40;93.20;;;;;;5051528;28;20013;-56
2023/02/08 11:27:30;;;;;;;16.27;11.55;;;4.10;92.40;;;;;;5049229;28;20116;-53
2023/02/08 11:30:17;;;;;;;16.27;10.02;;;4.10;93.10;;;;;;5042565;28;20021;-57
2023/02/08 11:32:45;;;;;;;21.55;10.80;;;4.00;93.00;;;;;;5031437;28;20104;-58
2023/02/08 11:35:25;;;;;;;17.00;10.02;;;3.80;93.10;;;;;;5046931;28;20090;-59
2023/02/08 11:37:55;;;;;;;16.73;10.35;;;3.70;92.40;;;;;;5051345;28;20496;-54
2023/02/08 11:40:42;;;;;;;17.98;10.73;;;3.70;91.90;;;;;;5033609;28;20024;-58
2023/02/08 11:43:32;;;;;;;22.73;10.95;;;3.60;92.30;;;;;;5046383;28;20583;-55
2023/02/08 11:46:01;;;;;;;15.25;10.50;;;3.60;92.40;;;;;;5037543;28;20021;-54
2023/02/08 11:48:34;;;;;;;17.60;10.35;;;;;;;;;;5043305;28;20056;-60
2023/02/08 11:51:02;;;;;;;19.10;9.90;;;3.60;92.20;;;;;;5049942;28;20107;-57
2023/02/08 11:53:39;;;;;;;14.80;9.38;;;3.70;91.90;;;;;;5034736;28;20049;-56
2023/02/08 11:56:12;;;;;;;16.10;10.45;;;3.70;91.60;;;;;;5051537;28;20025;-58
2023/02/08 11:58:38;;;;;;;19.23;11.05;;;3.70;91.80;;;;;;5050854;28;20029;-56
2023/02/08 12:01:20;;;;;;;17.52;10.48;;;3.80;91.30;;;;;;5037409;28;20052;-60
2023/02/08 12:03:49;;;;;;;20.67;10.65;;;3.80;91.60;;;;;;5040399;28;20025;-60
2023/02/08 12:06:26;;;;;;;17.05;10.25;;;3.80;90.80;;;;;;5051507;28;20018;-58
2023/02/08 12:09:06;;;;;;;20.08;10.07;;;3.70;91.60;;;;;;5033979;28;20032;-61
2023/02/08 12:11:41;;;;;;;16.90;10.20;;;3.70;91.00;;;;;;5031758;28;20049;-62
2023/02/08 12:14:32;;;;;;;16.10;9.48;;;3.70;91.20;;;;;;5038844;28;20036;-60
2023/02/08 12:17:16;;;;;;;17.17;10.35;;;3.70;92.00;;;;;;5040940;28;20021;-59
2023/02/08 12:19:48;;;;;;;18.65;10.52;;;3.80;91.00;;;;;;5054132;28;20036;-59
2023/02/08 12:22:29;;;;;;;17.55;10.32;;;3.80;91.30;;;;;;5061125;28;20031;-57
2023/02/08 12:25:20;;;;;;;21.13;10.85;;;3.80;90.30;;;;;;5053350;28;20507;-58
2023/02/08 12:28:17;;;;;;;19.45;10.43;;;3.70;91.50;;;;;;5031314;28;20029;-56
2023/02/08 12:30:58;;;;;;;18.58;10.40;;;3.80;92.00;;;;;;5047191;28;20036;-55
2023/02/08 12:33:50;;;;;;;16.75;10.38;;;3.80;91.60;;;;;;5035990;28;20448;-52
2023/02/08 12:36:37;;;;;;;20.90;11.05;;;3.80;91.30;;;;;;5039049;28;20025;-58
2023/02/08 12:42:05;;;;;;;15.25;10.00;;;3.80;91.50;;;;;;5031148;28;20036;-61
2023/02/08 12:44:52;;;;;;;16.50;9.57;;;3.90;91.60;;;;;;5027311;28;20396;-62
2023/02/08 12:47:30;;;;;;;18.33;10.25;;;4.00;91.20;;;;;;5039641;28;20103;-56
2023/02/08 12:50:32;;;;;;;25.17;9.68;;;4.00;91.30;;;;;;5029567;28;20493;-60
2023/02/08 12:53:04;;;;;;;16.90;9.80;;;4.10;89.80;;;;;;5027839;28;20074;-60
2023/02/08 12:55:34;;;;;;;15.90;9.35;;;4.10;89.70;;;;;;5015436;28;20038;-55
2023/02/08 12:58:23;;;;;;;17.58;10.23;;;4.00;90.50;;;;;;5044820;28;20088;-57
2023/02/08 13:00:52;;;;;;;16.02;10.35;;;4.10;89.10;;;;;;5049147;28;20454;-57
2023/02/08 13:03:26;;;;;;;19.05;10.63;;;4.10;90.20;;;;;;5050518;28;20105;-57
2023/02/08 13:05:53;;;;;;;16.80;10.32;;;4.10;90.90;;;;;;5052562;28;20056;-59
2023/02/08 13:08:35;;;;;;;15.10;9.10;;;4.10;90.10;;;;;;5054576;28;20033;-57
2023/02/08 13:11:08;;;;;;;16.42;9.63;;;4.10;89.60;;;;;;5053866;28;20017;-54
2023/02/08 13:13:36;;;;;;;15.80;9.65;;;4.10;90.30;;;;;;5016230;28;20026;-56